MMML/MXL METAR and TAF weather

Enter ICAO airport designator
Station Type Date Time Source
MMML METAR 2024/04/15 07:44 UTC NOAA

MMML 150744Z 30013KT 10SM SKC 16/02 A2997


Station Type Date Time Source
MMML Decoded METAR 2024/04/15 07:44 UTC NOAA

Mexicali International Airport , Mexico (MMML) 32-38N 117-00W
Apr 15, 2024 - 03:44 AM EDT / 2024.04.15 0744 UTC
Wind: from the WNW (300 degrees) at 15 MPH (13 KT):0
Visibility: 10 mile(s):0
Sky conditions: clear
Temperature: 60 F (16 C)
Dew Point: 35 F (2 C)
Relative Humidity: 38%
Pressure (altimeter): 29.97 in. Hg (1014 hPa)
ob: MMML 150744Z 30013KT 10SM SKC 16/02 A2997
cycle: 7

Station Type Date Time Source
MMML TAF 2024/04/15 06:39 UTC NOAA